Kenai, AK

11:15 PM AKST on February 18, 2018 (GMT -0900)
coastal | | Change Station

Elev 90 ft 60.57 °N, 151.29 °W | Updated 34 seconds ago

Overcast
Overcast
22.3 °F
Feels Like 22 °F
N
0.0
Wind Variable Wind from SSW

Today
High -- | Low -- °F
--% Chance of Precip.
Yesterday
High -- | Low -- °F
Precip. -- in
Pressure 30.47 in
Visibility 10.0 miles
Clouds Scattered Clouds 400 ft
Overcast 2200 ft
Windchill 22 °F
Dew Point 20 °F
Humidity 91%
Rainfall 0.00 in
Snow Depth Not available.
8:35 AM 6:03 PM
Waxing Crescent, 12% visible
METAR PAEN 190753Z AUTO 05005KT 10SM SCT004 OVC022 M05/M05 A3045 RMK AO2 SLP316 T10501050 TSNO $
Pressure 30.47 in
Visibility 10.0 miles
Clouds Scattered Clouds 400 ft
Overcast 2200 ft
Windchill 22 °F
Dew Point 20 °F
Humidity 91%
Rainfall 0.00 in
Snow Depth Not available.
8:35 AM 6:03 PM
Waxing Crescent, 12% visible
METAR PAEN 190753Z AUTO 05005KT 10SM SCT004 OVC022 M05/M05 A3045 RMK AO2 SLP316 T10501050 TSNO $

Get Severe Weather Alerts

Thanks for signing up!

Be on the lookout for a verification email in your inbox.

You'll start receiving the daily forecast at 6 AM.

×

10-Day Weather Forecast

Almanac

Astronomy

Feb. 18, 2018 Rise Set
Actual Time
Civil Twilight
Nautical Twilight
Astronomical Twilight
Moon
Length of Visible Light
Length of Day
Tomorrow will be .
, % of the Moon is Illuminated

Today's Extremes

State Highs State Lows

Community

WunderPhotos

Category 6

Welcome to Category 6. This is the collective home for Weather Underground's featured writeups by Dr. Jeff Masters (right), Bob Henson (left), Chris Burt, and other regular contributors.

Nearby

Air Quality

  Air Quality AQ Index Pollutant
Not available.

Snow Depth

Station Depth Elevation

Earthquake Activity

City Distance Mag. Time & Date
Minimum magnitude displayed is 2.5.

Coastal Water Temperatures

Place Temperature

Stations

Nearby Weather Stations

Station Location Temp. Windchill Dew Point Humidity Wind Precip. Elev Updated Type
                   

Watches & Warnings

There are currently no watches in effect.